sensor_id;sensor_type;location;lat;lon;timestamp;temperature;humidity
64599;SHT31;51008;51.504;11.548;2024-01-11T00:03:04;-9.13;93.97
64599;SHT31;51008;51.504;11.548;2024-01-11T00:08:05;-9.16;93.21
64599;SHT31;51008;51.504;11.548;2024-01-11T00:13:06;-9.07;93.95
64599;SHT31;51008;51.504;11.548;2024-01-11T00:18:07;-9.05;93.51
64599;SHT31;51008;51.504;11.548;2024-01-11T00:23:08;-9.23;92.72
64599;SHT31;51008;51.504;11.548;2024-01-11T00:28:09;-9.27;93.24
64599;SHT31;51008;51.504;11.548;2024-01-11T00:33:10;-9.23;93.49
64599;SHT31;51008;51.504;11.548;2024-01-11T00:38:10;-9.19;93.74
64599;SHT31;51008;51.504;11.548;2024-01-11T00:43:11;-9.26;93.40
64599;SHT31;51008;51.504;11.548;2024-01-11T00:48:12;-9.31;93.11
64599;SHT31;51008;51.504;11.548;2024-01-11T00:53:13;-9.37;93.15
64599;SHT31;51008;51.504;11.548;2024-01-11T00:58:14;-9.34;93.59
64599;SHT31;51008;51.504;11.548;2024-01-11T01:03:15;-9.26;93.70
64599;SHT31;51008;51.504;11.548;2024-01-11T01:08:16;-9.33;92.99
64599;SHT31;51008;51.504;11.548;2024-01-11T01:13:17;-9.45;92.35
64599;SHT31;51008;51.504;11.548;2024-01-11T01:18:18;-9.52;92.60
64599;SHT31;51008;51.504;11.548;2024-01-11T01:23:19;-9.44;93.69
64599;SHT31;51008;51.504;11.548;2024-01-11T01:28:20;-9.40;93.58
64599;SHT31;51008;51.504;11.548;2024-01-11T01:33:22;-9.28;93.95
64599;SHT31;51008;51.504;11.548;2024-01-11T01:38:23;-9.24;93.46
64599;SHT31;51008;51.504;11.548;2024-01-11T01:43:24;-9.42;92.66
64599;SHT31;51008;51.504;11.548;2024-01-11T01:48:26;-9.37;93.73
64599;SHT31;51008;51.504;11.548;2024-01-11T01:53:28;-9.42;92.96
64599;SHT31;51008;51.504;11.548;2024-01-11T01:58:29;-9.37;93.82
64599;SHT31;51008;51.504;11.548;2024-01-11T02:03:31;-9.31;93.39
64599;SHT31;51008;51.504;11.548;2024-01-11T02:08:34;-9.30;93.52
64599;SHT31;51008;51.504;11.548;2024-01-11T02:13:35;-9.35;93.26
64599;SHT31;51008;51.504;11.548;2024-01-11T02:18:36;-9.41;93.11
64599;SHT31;51008;51.504;11.548;2024-01-11T02:23:44;-9.23;94.01
64599;SHT31;51008;51.504;11.548;2024-01-11T02:28:45;-9.22;93.83
64599;SHT31;51008;51.504;11.548;2024-01-11T02:33:47;-9.23;93.97
64599;SHT31;51008;51.504;11.548;2024-01-11T02:38:48;-9.23;93.60
64599;SHT31;51008;51.504;11.548;2024-01-11T02:43:52;-9.14;93.60
64599;SHT31;51008;51.504;11.548;2024-01-11T02:48:53;-9.24;93.15
64599;SHT31;51008;51.504;11.548;2024-01-11T02:53:54;-9.34;92.72
64599;SHT31;51008;51.504;11.548;2024-01-11T02:58:55;-9.49;92.54
64599;SHT31;51008;51.504;11.548;2024-01-11T03:03:56;-9.54;92.84
64599;SHT31;51008;51.504;11.548;2024-01-11T03:08:57;-9.58;93.09
64599;SHT31;51008;51.504;11.548;2024-01-11T03:13:58;-9.62;92.83
64599;SHT31;51008;51.504;11.548;2024-01-11T03:18:59;-9.62;93.38
64599;SHT31;51008;51.504;11.548;2024-01-11T03:24:00;-9.65;93.05
64599;SHT31;51008;51.504;11.548;2024-01-11T03:29:01;-9.58;93.75
64599;SHT31;51008;51.504;11.548;2024-01-11T03:34:02;-9.58;93.86
64599;SHT31;51008;51.504;11.548;2024-01-11T03:39:04;-9.45;93.99
64599;SHT31;51008;51.504;11.548;2024-01-11T03:44:05;-9.33;94.02
64599;SHT31;51008;51.504;11.548;2024-01-11T03:49:06;-9.33;93.29
64599;SHT31;51008;51.504;11.548;2024-01-11T03:54:07;-9.30;93.18
64599;SHT31;51008;51.504;11.548;2024-01-11T03:59:08;-9.33;93.08
64599;SHT31;51008;51.504;11.548;2024-01-11T04:04:08;-9.34;93.42
64599;SHT31;51008;51.504;11.548;2024-01-11T04:09:09;-9.34;93.15
64599;SHT31;51008;51.504;11.548;2024-01-11T04:14:10;-9.40;93.16
64599;SHT31;51008;51.504;11.548;2024-01-11T04:19:11;-9.38;93.13
64599;SHT31;51008;51.504;11.548;2024-01-11T04:24:12;-9.41;93.84
64599;SHT31;51008;51.504;11.548;2024-01-11T04:29:13;-9.30;93.74
64599;SHT31;51008;51.504;11.548;2024-01-11T04:34:14;-9.30;93.22
64599;SHT31;51008;51.504;11.548;2024-01-11T04:39:15;-9.41;92.83
64599;SHT31;51008;51.504;11.548;2024-01-11T04:44:16;-9.49;92.90
64599;SHT31;51008;51.504;11.548;2024-01-11T04:49:17;-9.47;93.58
64599;SHT31;51008;51.504;11.548;2024-01-11T04:54:18;-9.44;93.34
64599;SHT31;51008;51.504;11.548;2024-01-11T04:59:19;-9.42;93.37
64599;SHT31;51008;51.504;11.548;2024-01-11T05:04:20;-9.28;93.95
64599;SHT31;51008;51.504;11.548;2024-01-11T05:09:21;-9.20;93.30
64599;SHT31;51008;51.504;11.548;2024-01-11T05:14:22;-9.24;92.89
64599;SHT31;51008;51.504;11.548;2024-01-11T05:19:23;-9.23;92.87
64599;SHT31;51008;51.504;11.548;2024-01-11T05:24:24;-9.24;92.83
64599;SHT31;51008;51.504;11.548;2024-01-11T05:29:25;-9.26;92.95
64599;SHT31;51008;51.504;11.548;2024-01-11T05:34:26;-9.17;93.33
64599;SHT31;51008;51.504;11.548;2024-01-11T05:39:27;-9.09;93.34
64599;SHT31;51008;51.504;11.548;2024-01-11T05:44:28;-9.10;92.93
64599;SHT31;51008;51.504;11.548;2024-01-11T05:49:29;-9.13;92.54
64599;SHT31;51008;51.504;11.548;2024-01-11T05:54:30;-9.24;92.77
64599;SHT31;51008;51.504;11.548;2024-01-11T05:59:31;-9.31;92.84
64599;SHT31;51008;51.504;11.548;2024-01-11T06:04:32;-9.34;93.02
64599;SHT31;51008;51.504;11.548;2024-01-11T06:09:33;-9.37;93.05
64599;SHT31;51008;51.504;11.548;2024-01-11T06:14:34;-9.35;92.97
64599;SHT31;51008;51.504;11.548;2024-01-11T06:19:36;-9.35;93.09
64599;SHT31;51008;51.504;11.548;2024-01-11T06:24:38;-9.30;94.02
64599;SHT31;51008;51.504;11.548;2024-01-11T06:29:38;-9.10;94.06
64599;SHT31;51008;51.504;11.548;2024-01-11T06:34:39;-9.12;93.55
64599;SHT31;51008;51.504;11.548;2024-01-11T06:39:40;-9.16;93.33
64599;SHT31;51008;51.504;11.548;2024-01-11T06:44:41;-9.20;93.31
64599;SHT31;51008;51.504;11.548;2024-01-11T06:49:44;-9.20;93.67
64599;SHT31;51008;51.504;11.548;2024-01-11T06:54:45;-9.07;93.98
64599;SHT31;51008;51.504;11.548;2024-01-11T06:59:46;-8.81;94.04
64599;SHT31;51008;51.504;11.548;2024-01-11T07:04:47;-8.60;93.98
64599;SHT31;51008;51.504;11.548;2024-01-11T07:09:48;-8.40;93.45
64599;SHT31;51008;51.504;11.548;2024-01-11T07:14:49;-8.24;93.02
64599;SHT31;51008;51.504;11.548;2024-01-11T07:19:50;-8.20;93.09
64599;SHT31;51008;51.504;11.548;2024-01-11T07:24:51;-8.06;92.85
64599;SHT31;51008;51.504;11.548;2024-01-11T07:29:52;-7.88;92.28
64599;SHT31;51008;51.504;11.548;2024-01-11T07:34:53;-7.61;91.46
64599;SHT31;51008;51.504;11.548;2024-01-11T07:39:54;-7.57;90.44
64599;SHT31;51008;51.504;11.548;2024-01-11T07:44:55;-7.66;90.78
64599;SHT31;51008;51.504;11.548;2024-01-11T07:49:56;-7.81;90.66
64599;SHT31;51008;51.504;11.548;2024-01-11T07:54:57;-7.94;91.06
64599;SHT31;51008;51.504;11.548;2024-01-11T07:59:58;-7.78;91.36
64599;SHT31;51008;51.504;11.548;2024-01-11T08:04:59;-7.64;91.18
64599;SHT31;51008;51.504;11.548;2024-01-11T08:10:00;-6.85;91.73
64599;SHT31;51008;51.504;11.548;2024-01-11T08:15:01;-6.24;87.57
64599;SHT31;51008;51.504;11.548;2024-01-11T08:20:03;-5.65;86.16
64599;SHT31;51008;51.504;11.548;2024-01-11T08:25:05;-5.74;85.52
64599;SHT31;51008;51.504;11.548;2024-01-11T08:30:06;-5.20;86.35
64599;SHT31;51008;51.504;11.548;2024-01-11T08:35:11;-4.34;85.11
64599;SHT31;51008;51.504;11.548;2024-01-11T08:40:12;-4.10;81.61
64599;SHT31;51008;51.504;11.548;2024-01-11T08:45:13;-3.77;82.25
64599;SHT31;51008;51.504;11.548;2024-01-11T08:50:15;-3.34;82.04
64599;SHT31;51008;51.504;11.548;2024-01-11T08:55:16;-3.23;80.34
64599;SHT31;51008;51.504;11.548;2024-01-11T09:00:17;-3.12;79.92
64599;SHT31;51008;51.504;11.548;2024-01-11T09:05:18;-3.02;78.28
64599;SHT31;51008;51.504;11.548;2024-01-11T09:10:19;-2.74;78.33
64599;SHT31;51008;51.504;11.548;2024-01-11T09:15:20;-2.22;76.64
64599;SHT31;51008;51.504;11.548;2024-01-11T09:20:21;-2.16;74.46
64599;SHT31;51008;51.504;11.548;2024-01-11T09:25:22;-1.49;75.21
64599;SHT31;51008;51.504;11.548;2024-01-11T09:30:23;-1.02;73.17
64599;SHT31;51008;51.504;11.548;2024-01-11T09:35:24;-0.59;73.92
64599;SHT31;51008;51.504;11.548;2024-01-11T09:40:25;-0.40;72.05
64599;SHT31;51008;51.504;11.548;2024-01-11T09:45:26;-0.19;72.30
64599;SHT31;51008;51.504;11.548;2024-01-11T09:50:28;0.15;71.67
64599;SHT31;51008;51.504;11.548;2024-01-11T09:55:30;0.20;69.58
64599;SHT31;51008;51.504;11.548;2024-01-11T10:00:31;0.55;71.86
64599;SHT31;51008;51.504;11.548;2024-01-11T10:05:34;1.07;70.89
64599;SHT31;51008;51.504;11.548;2024-01-11T10:10:36;1.39;68.78
64599;SHT31;51008;51.504;11.548;2024-01-11T10:15:37;1.60;66.98
64599;SHT31;51008;51.504;11.548;2024-01-11T10:20:38;1.79;66.62
64599;SHT31;51008;51.504;11.548;2024-01-11T10:25:39;1.62;67.00
64599;SHT31;51008;51.504;11.548;2024-01-11T10:30:40;0.87;67.42
64599;SHT31;51008;51.504;11.548;2024-01-11T10:35:41;1.08;68.42
64599;SHT31;51008;51.504;11.548;2024-01-11T10:40:42;-0.01;68.26
64599;SHT31;51008;51.504;11.548;2024-01-11T10:45:44;-0.08;69.35
64599;SHT31;51008;51.504;11.548;2024-01-11T10:50:46;-0.21;70.64
64599;SHT31;51008;51.504;11.548;2024-01-11T10:55:49;-0.57;72.15
64599;SHT31;51008;51.504;11.548;2024-01-11T11:00:53;-0.76;73.76
64599;SHT31;51008;51.504;11.548;2024-01-11T11:05:54;-0.43;73.88
64599;SHT31;51008;51.504;11.548;2024-01-11T11:11:00;-0.91;74.62
64599;SHT31;51008;51.504;11.548;2024-01-11T11:16:03;-1.40;75.84
64599;SHT31;51008;51.504;11.548;2024-01-11T11:21:11;-1.66;76.68
64599;SHT31;51008;51.504;11.548;2024-01-11T11:26:18;-1.82;77.38
64599;SHT31;51008;51.504;11.548;2024-01-11T11:31:42;-1.53;76.88
64599;SHT31;51008;51.504;11.548;2024-01-11T11:36:46;-1.87;77.90
64599;SHT31;51008;51.504;11.548;2024-01-11T11:41:47;-1.87;78.52
64599;SHT31;51008;51.504;11.548;2024-01-11T11:46:48;-1.67;78.29
64599;SHT31;51008;51.504;11.548;2024-01-11T11:51:49;-1.82;79.69
64599;SHT31;51008;51.504;11.548;2024-01-11T11:56:50;-1.40;78.00
64599;SHT31;51008;51.504;11.548;2024-01-11T12:01:52;-0.84;76.22
64599;SHT31;51008;51.504;11.548;2024-01-11T12:06:54;-0.95;74.99
64599;SHT31;51008;51.504;11.548;2024-01-11T12:11:55;-0.67;75.51
64599;SHT31;51008;51.504;11.548;2024-01-11T12:16:57;-0.56;75.15
64599;SHT31;51008;51.504;11.548;2024-01-11T12:21:59;-0.42;76.20
64599;SHT31;51008;51.504;11.548;2024-01-11T12:27:01;-0.40;76.89
64599;SHT31;51008;51.504;11.548;2024-01-11T12:32:02;-0.42;76.19
64599;SHT31;51008;51.504;11.548;2024-01-11T12:37:05;-0.32;76.47
64599;SHT31;51008;51.504;11.548;2024-01-11T12:42:06;-0.53;78.72
64599;SHT31;51008;51.504;11.548;2024-01-11T12:47:07;-0.80;80.47
64599;SHT31;51008;51.504;11.548;2024-01-11T12:52:15;-0.81;79.85
64599;SHT31;51008;51.504;11.548;2024-01-11T12:57:20;-0.62;80.49
64599;SHT31;51008;51.504;11.548;2024-01-11T13:02:21;-0.33;80.05
64599;SHT31;51008;51.504;11.548;2024-01-11T13:07:22;-0.07;79.31
64599;SHT31;51008;51.504;11.548;2024-01-11T13:12:23;-0.04;78.68
64599;SHT31;51008;51.504;11.548;2024-01-11T13:17:24;-0.18;78.99
64599;SHT31;51008;51.504;11.548;2024-01-11T13:22:25;-0.29;79.15
64599;SHT31;51008;51.504;11.548;2024-01-11T13:27:26;-0.43;79.41
64599;SHT31;51008;51.504;11.548;2024-01-11T13:32:27;-0.57;79.65
64599;SHT31;51008;51.504;11.548;2024-01-11T13:37:28;-0.72;79.61
64599;SHT31;51008;51.504;11.548;2024-01-11T13:42:29;-0.70;79.56
64599;SHT31;51008;51.504;11.548;2024-01-11T13:47:29;-0.73;78.57
64599;SHT31;51008;51.504;11.548;2024-01-11T13:52:30;-0.69;79.79
64599;SHT31;51008;51.504;11.548;2024-01-11T13:57:51;-0.76;81.10
64599;SHT31;51008;51.504;11.548;2024-01-11T14:02:52;-0.81;82.43
64599;SHT31;51008;51.504;11.548;2024-01-11T14:07:53;-1.09;83.76
64599;SHT31;51008;51.504;11.548;2024-01-11T14:12:55;-1.39;85.74
64599;SHT31;51008;51.504;11.548;2024-01-11T14:17:56;-1.71;87.72
64599;SHT31;51008;51.504;11.548;2024-01-11T14:22:57;-1.88;89.39
64599;SHT31;51008;51.504;11.548;2024-01-11T14:27:58;-2.03;90.98
64599;SHT31;51008;51.504;11.548;2024-01-11T14:32:59;-2.05;91.97
64599;SHT31;51008;51.504;11.548;2024-01-11T14:38:00;-2.12;92.51
64599;SHT31;51008;51.504;11.548;2024-01-11T14:43:03;-2.12;92.94
64599;SHT31;51008;51.504;11.548;2024-01-11T14:48:05;-2.10;93.28
64599;SHT31;51008;51.504;11.548;2024-01-11T14:53:06;-2.09;93.62
64599;SHT31;51008;51.504;11.548;2024-01-11T14:58:07;-2.06;93.98
64599;SHT31;51008;51.504;11.548;2024-01-11T15:03:08;-2.05;94.60
64599;SHT31;51008;51.504;11.548;2024-01-11T15:08:09;-2.08;95.21
64599;SHT31;51008;51.504;11.548;2024-01-11T15:13:10;-2.06;95.48
64599;SHT31;51008;51.504;11.548;2024-01-11T15:18:10;-2.05;95.99
64599;SHT31;51008;51.504;11.548;2024-01-11T15:23:11;-2.02;96.26
64599;SHT31;51008;51.504;11.548;2024-01-11T15:28:12;-1.99;96.70
64599;SHT31;51008;51.504;11.548;2024-01-11T15:33:13;-1.88;96.75
64599;SHT31;51008;51.504;11.548;2024-01-11T15:38:14;-1.85;96.81
64599;SHT31;51008;51.504;11.548;2024-01-11T15:43:15;-1.77;97.10
64599;SHT31;51008;51.504;11.548;2024-01-11T15:48:16;-1.73;97.32
64599;SHT31;51008;51.504;11.548;2024-01-11T15:53:17;-1.67;97.59
64599;SHT31;51008;51.504;11.548;2024-01-11T15:58:18;-1.66;97.77
64599;SHT31;51008;51.504;11.548;2024-01-11T16:03:19;-1.55;97.97
64599;SHT31;51008;51.504;11.548;2024-01-11T16:08:21;-1.47;98.19
64599;SHT31;51008;51.504;11.548;2024-01-11T16:13:22;-1.40;98.39
64599;SHT31;51008;51.504;11.548;2024-01-11T16:18:23;-1.31;98.68
64599;SHT31;51008;51.504;11.548;2024-01-11T16:23:24;-1.22;98.68
64599;SHT31;51008;51.504;11.548;2024-01-11T16:28:25;-1.15;98.85
64599;SHT31;51008;51.504;11.548;2024-01-11T16:33:26;-1.09;98.91
64599;SHT31;51008;51.504;11.548;2024-01-11T16:38:27;-1.04;98.92
64599;SHT31;51008;51.504;11.548;2024-01-11T16:43:28;-1.00;99.09
64599;SHT31;51008;51.504;11.548;2024-01-11T16:48:29;-0.91;99.17
64599;SHT31;51008;51.504;11.548;2024-01-11T16:53:30;-0.85;99.07
64599;SHT31;51008;51.504;11.548;2024-01-11T16:58:31;-0.77;99.04
64599;SHT31;51008;51.504;11.548;2024-01-11T17:03:32;-0.74;99.09
64599;SHT31;51008;51.504;11.548;2024-01-11T17:08:34;-0.69;99.09
64599;SHT31;51008;51.504;11.548;2024-01-11T17:13:35;-0.62;99.02
64599;SHT31;51008;51.504;11.548;2024-01-11T17:18:36;-0.59;99.05
64599;SHT31;51008;51.504;11.548;2024-01-11T17:23:37;-0.50;99.03
64599;SHT31;51008;51.504;11.548;2024-01-11T17:28:38;-0.48;98.97
64599;SHT31;51008;51.504;11.548;2024-01-11T17:33:42;-0.46;99.02
64599;SHT31;51008;51.504;11.548;2024-01-11T17:38:43;-0.49;99.20
64599;SHT31;51008;51.504;11.548;2024-01-11T17:43:44;-0.45;99.10
64599;SHT31;51008;51.504;11.548;2024-01-11T17:48:44;-0.42;99.05
64599;SHT31;51008;51.504;11.548;2024-01-11T17:53:45;-0.48;99.33
64599;SHT31;51008;51.504;11.548;2024-01-11T17:58:46;-0.43;99.38
64599;SHT31;51008;51.504;11.548;2024-01-11T18:03:47;-0.46;99.42
64599;SHT31;51008;51.504;11.548;2024-01-11T18:08:48;-0.46;99.29
64599;SHT31;51008;51.504;11.548;2024-01-11T18:13:49;-0.46;99.44
64599;SHT31;51008;51.504;11.548;2024-01-11T18:18:50;-0.48;99.46
64599;SHT31;51008;51.504;11.548;2024-01-11T18:23:52;-0.46;99.52
64599;SHT31;51008;51.504;11.548;2024-01-11T18:28:53;-0.46;99.36
64599;SHT31;51008;51.504;11.548;2024-01-11T18:33:54;-0.46;99.48
64599;SHT31;51008;51.504;11.548;2024-01-11T18:38:55;-0.46;99.48
64599;SHT31;51008;51.504;11.548;2024-01-11T18:43:56;-0.43;99.49
64599;SHT31;51008;51.504;11.548;2024-01-11T18:48:57;-0.40;99.44
64599;SHT31;51008;51.504;11.548;2024-01-11T18:53:58;-0.36;99.42
64599;SHT31;51008;51.504;11.548;2024-01-11T18:58:59;-0.33;99.41
64599;SHT31;51008;51.504;11.548;2024-01-11T19:04:00;-0.36;99.46
64599;SHT31;51008;51.504;11.548;2024-01-11T19:09:01;-0.38;99.54
64599;SHT31;51008;51.504;11.548;2024-01-11T19:14:02;-0.36;99.75
64599;SHT31;51008;51.504;11.548;2024-01-11T19:19:03;-0.35;99.76
64599;SHT31;51008;51.504;11.548;2024-01-11T19:24:04;-0.40;99.99
64599;SHT31;51008;51.504;11.548;2024-01-11T19:29:06;-0.36;99.99
64599;SHT31;51008;51.504;11.548;2024-01-11T19:34:07;-0.39;99.99
64599;SHT31;51008;51.504;11.548;2024-01-11T19:39:08;-0.36;99.99
64599;SHT31;51008;51.504;11.548;2024-01-11T19:44:09;-0.35;99.99
64599;SHT31;51008;51.504;11.548;2024-01-11T19:49:10;-0.32;99.99
64599;SHT31;51008;51.504;11.548;2024-01-11T19:54:11;-0.32;99.99
64599;SHT31;51008;51.504;11.548;2024-01-11T19:59:12;-0.33;99.99
64599;SHT31;51008;51.504;11.548;2024-01-11T20:04:13;-0.33;99.99
64599;SHT31;51008;51.504;11.548;2024-01-11T20:09:14;-0.28;99.99
64599;SHT31;51008;51.504;11.548;2024-01-11T20:14:15;-0.25;99.99
64599;SHT31;51008;51.504;11.548;2024-01-11T20:19:16;-0.26;99.99
64599;SHT31;51008;51.504;11.548;2024-01-11T20:24:17;-0.28;99.99
64599;SHT31;51008;51.504;11.548;2024-01-11T20:29:18;-0.31;99.99
64599;SHT31;51008;51.504;11.548;2024-01-11T20:34:19;-0.29;99.99
64599;SHT31;51008;51.504;11.548;2024-01-11T20:39:20;-0.28;99.99
64599;SHT31;51008;51.504;11.548;2024-01-11T20:44:21;-0.28;99.99
64599;SHT31;51008;51.504;11.548;2024-01-11T20:49:22;-0.29;99.99
64599;SHT31;51008;51.504;11.548;2024-01-11T20:54:23;-0.26;99.99
64599;SHT31;51008;51.504;11.548;2024-01-11T20:59:43;-0.26;99.99
64599;SHT31;51008;51.504;11.548;2024-01-11T21:04:44;-0.25;99.99
64599;SHT31;51008;51.504;11.548;2024-01-11T21:09:45;-0.28;99.99
64599;SHT31;51008;51.504;11.548;2024-01-11T21:14:46;-0.25;99.99
64599;SHT31;51008;51.504;11.548;2024-01-11T21:19:47;-0.23;99.99
64599;SHT31;51008;51.504;11.548;2024-01-11T21:24:48;-0.19;99.99
64599;SHT31;51008;51.504;11.548;2024-01-11T21:29:49;-0.18;99.99
64599;SHT31;51008;51.504;11.548;2024-01-11T21:34:50;-0.18;99.99
64599;SHT31;51008;51.504;11.548;2024-01-11T21:39:51;-0.19;99.99
64599;SHT31;51008;51.504;11.548;2024-01-11T21:44:52;-0.23;99.99
64599;SHT31;51008;51.504;11.548;2024-01-11T21:49:53;-0.22;99.99
64599;SHT31;51008;51.504;11.548;2024-01-11T21:54:54;-0.25;99.99
64599;SHT31;51008;51.504;11.548;2024-01-11T21:59:55;-0.29;99.99
64599;SHT31;51008;51.504;11.548;2024-01-11T22:04:56;-0.26;99.99
64599;SHT31;51008;51.504;11.548;2024-01-11T22:09:56;-0.28;99.99
64599;SHT31;51008;51.504;11.548;2024-01-11T22:14:57;-0.31;99.99
64599;SHT31;51008;51.504;11.548;2024-01-11T22:19:58;-0.38;99.99
64599;SHT31;51008;51.504;11.548;2024-01-11T22:24:59;-0.66;98.53
64599;SHT31;51008;51.504;11.548;2024-01-11T22:30:03;-0.65;99.51
64599;SHT31;51008;51.504;11.548;2024-01-11T22:35:26;-0.72;99.43
64599;SHT31;51008;51.504;11.548;2024-01-11T22:40:27;-0.74;99.35
64599;SHT31;51008;51.504;11.548;2024-01-11T22:45:28;-0.84;99.15
64599;SHT31;51008;51.504;11.548;2024-01-11T22:50:29;-0.80;99.28
64599;SHT31;51008;51.504;11.548;2024-01-11T22:55:30;-0.84;98.90
64599;SHT31;51008;51.504;11.548;2024-01-11T23:00:31;-0.84;99.01
64599;SHT31;51008;51.504;11.548;2024-01-11T23:05:32;-0.83;99.11
64599;SHT31;51008;51.504;11.548;2024-01-11T23:10:33;-0.88;99.16
64599;SHT31;51008;51.504;11.548;2024-01-11T23:15:34;-0.90;99.31
64599;SHT31;51008;51.504;11.548;2024-01-11T23:20:35;-0.91;99.43
64599;SHT31;51008;51.504;11.548;2024-01-11T23:25:36;-0.87;99.43
64599;SHT31;51008;51.504;11.548;2024-01-11T23:30:37;-0.91;99.40
64599;SHT31;51008;51.504;11.548;2024-01-11T23:35:38;-0.97;99.51
64599;SHT31;51008;51.504;11.548;2024-01-11T23:40:39;-1.04;99.84
64599;SHT31;51008;51.504;11.548;2024-01-11T23:45:40;-0.95;99.79
64599;SHT31;51008;51.504;11.548;2024-01-11T23:50:41;-0.98;99.99
64599;SHT31;51008;51.504;11.548;2024-01-11T23:55:42;-0.94;99.89
